Time;durP1;ratioP1;P1;durP2;ratioP2;P2;SDS_P1;SDS_P2;PMS_P1;PMS_P2;Temp;Humidity;BMP_temperature;BMP_pressure;BME280_temperature;BME280_humidity;BME280_pressure;Samples;Min_cycle;Max_cycle;Signal;HPM_P1;HPM_P2
2021/12/18 00:02:22;;;;;;;3.33;1.70;;;;;;;2.95;68.42;99670.30;1804221;79;21025;-41
2021/12/18 00:04:49;;;;;;;3.12;1.62;;;;;;;2.94;68.36;99671.42;1807816;79;21254;-41
2021/12/18 00:07:15;;;;;;;2.08;1.50;;;;;;;2.88;68.37;99673.95;1787952;79;21017;-41
2021/12/18 00:09:42;;;;;;;2.25;1.37;;;;;;;2.86;68.54;99674.79;1793274;78;21181;-40
2021/12/18 00:12:09;;;;;;;3.50;1.27;;;;;;;2.88;68.41;99677.97;1726815;81;21091;-41
2021/12/18 00:14:37;;;;;;;3.42;1.30;;;;;;;2.94;68.26;99680.00;1737790;81;21601;-41
2021/12/18 00:17:04;;;;;;;1.75;1.20;;;;;;;2.99;68.08;99684.70;1746415;81;20983;-40
2021/12/18 00:19:32;;;;;;;3.15;1.40;;;;;;;2.98;68.06;99681.77;1781100;80;20955;-40
2021/12/18 00:22:00;;;;;;;2.52;1.75;;;;;;;2.95;67.79;99686.38;1748229;81;21129;-40
2021/12/18 00:24:26;;;;;;;2.98;1.50;;;;;;;2.94;67.89;99688.03;1765375;80;20998;-40
2021/12/18 00:26:53;;;;;;;1.50;1.20;;;;;;;2.93;67.93;99688.58;1726814;81;20980;-40
2021/12/18 00:29:20;;;;;;;3.35;1.40;;;;;;;2.92;68.00;99686.19;1758401;80;20943;-40
2021/12/18 00:31:47;;;;;;;3.17;1.20;;;;;;;2.90;67.99;99691.87;1708252;82;21043;-40
2021/12/18 00:34:14;;;;;;;1.95;1.40;;;;;;;2.87;68.11;99695.67;1763288;81;21129;-40
2021/12/18 00:36:41;;;;;;;1.87;1.22;;;;;;;2.86;68.03;99694.88;1752582;81;21046;-40
2021/12/18 00:39:07;;;;;;;1.90;1.20;;;;;;;2.84;68.26;99694.94;1739091;81;21059;-40
2021/12/18 00:44:04;;;;;;;2.33;1.37;;;;;;;2.87;68.35;99702.36;1737630;81;21082;-40
2021/12/18 00:46:37;;;;;;;2.60;1.42;;;;;;;2.90;68.36;99699.90;1736694;81;21198;-40
2021/12/18 00:49:05;;;;;;;1.87;1.55;;;;;;;2.92;68.24;99695.56;1737462;82;21055;-40
2021/12/18 00:51:32;;;;;;;3.30;1.40;;;;;;;2.88;68.39;99702.07;1760765;81;21038;-40
2021/12/18 00:54:01;;;;;;;2.30;1.40;;;;;;;2.87;68.43;99702.36;1757271;81;20983;-40
2021/12/18 00:56:27;;;;;;;2.83;1.30;;;;;;;2.91;68.55;99706.81;1737888;81;21552;-41
2021/12/18 00:58:54;;;;;;;2.22;1.42;;;;;;;2.97;68.32;99706.17;1737943;81;21102;-41
2021/12/18 01:01:23;;;;;;;1.98;1.45;;;;;;;2.97;68.33;99710.98;1755609;81;21048;-41
2021/12/18 01:03:51;;;;;;;3.98;1.57;;;;;;;2.96;68.46;99712.06;1738130;81;20975;-40
2021/12/18 01:06:19;;;;;;;1.82;1.32;;;;;;;2.96;68.37;99716.63;1737663;81;21609;-41
2021/12/18 01:08:47;;;;;;;4.03;1.27;;;;;;;2.89;68.36;99717.05;1766909;79;21053;-40
2021/12/18 01:11:34;;;;;;;1.57;1.17;;;;;;;2.81;68.55;99715.63;1762704;81;21133;-40
2021/12/18 01:15:02;;;;;;;2.47;1.35;;;;;;;2.75;68.63;99709.58;1746885;81;21005;-40
2021/12/18 01:16:48;;;;;;;1.80;1.37;;;;;;;2.69;68.82;99718.80;1744379;80;20946;-40
2021/12/18 01:24:36;;;;;;;2.60;1.70;;;;;;;2.64;68.97;99721.58;1752164;79;21146;-40
2021/12/18 01:27:04;;;;;;;2.00;1.35;;;;;;;2.61;69.03;99719.51;1766467;81;20937;-40
2021/12/18 01:29:30;;;;;;;1.87;1.30;;;;;;;2.21;69.14;99666.77;1739238;81;21032;-41
2021/12/18 01:31:57;;;;;;;2.22;1.22;;;;;;;2.54;69.24;99719.89;1749011;81;21076;-41
2021/12/18 01:34:24;;;;;;;1.42;1.30;;;;;;;2.53;69.13;99712.95;1749592;81;21052;-41
2021/12/18 01:36:51;;;;;;;1.47;1.22;;;;;;;2.59;69.12;99727.83;1759603;81;21134;-40
2021/12/18 01:39:19;;;;;;;2.47;1.40;;;;;;;2.63;68.84;99724.00;1782048;79;20960;-40
2021/12/18 01:44:55;;;;;;;2.65;1.20;;;;;;;2.54;68.79;99730.59;1792727;79;21032;-40
2021/12/18 01:52:40;;;;;;;3.12;0.90;;;;;;;2.48;68.71;99735.80;1789363;79;21854;-40
2021/12/18 01:55:09;;;;;;;1.25;1.12;;;;;;;2.55;68.20;99740.77;1797047;79;21027;-40
2021/12/18 01:57:38;;;;;;;2.05;1.40;;;;;;;2.53;68.22;99734.90;1782428;79;21020;-41
2021/12/18 02:00:21;;;;;;;1.65;1.00;;;;;;;2.47;67.58;99736.88;1796594;79;21037;-41
2021/12/18 02:02:48;;;;;;;2.10;1.10;;;;;;;2.44;67.64;99732.67;1773397;79;21090;-41
2021/12/18 02:05:16;;;;;;;2.17;1.00;;;;;;;2.41;67.78;99737.28;1782840;79;21519;-40
2021/12/18 02:07:43;;;;;;;1.30;0.93;;;;;;;2.40;67.91;99740.50;1788827;79;20952;-40
2021/12/18 02:10:17;;;;;;;3.20;1.07;;;;;;;2.39;67.91;99736.23;1795859;79;21091;-40
2021/12/18 02:12:49;;;;;;;1.32;1.00;;;;;;;2.41;67.81;99743.98;1782200;79;20969;-41
2021/12/18 02:20:50;;;;;;;1.50;0.98;;;;;;;2.41;66.80;99741.30;1806374;79;21593;-41
2021/12/18 02:23:17;;;;;;;1.07;0.98;;;;;;;2.35;67.06;99753.97;1795040;79;21009;-41
2021/12/18 02:25:45;;;;;;;1.57;1.00;;;;;;;2.33;67.23;99754.00;1784638;80;21502;-40
2021/12/18 02:28:18;;;;;;;0.70;0.70;;;;;;;2.34;66.78;99755.59;1789015;79;21155;-40
2021/12/18 02:30:44;;;;;;;2.65;0.90;;;;;;;2.35;66.66;99754.52;1784934;79;21074;-41
2021/12/18 02:33:11;;;;;;;1.27;0.95;;;;;;;2.35;66.22;99759.33;1789721;79;21068;-40
2021/12/18 02:35:46;;;;;;;2.05;0.90;;;;;;;2.32;66.15;99768.49;1800624;79;21487;-40
2021/12/18 02:38:23;;;;;;;1.92;1.20;;;;;;;2.28;66.28;99768.27;1791528;79;21021;-41
2021/12/18 02:43:29;;;;;;;2.15;1.20;;;;;;;2.31;67.61;99772.25;1801483;79;21002;-40
2021/12/18 02:45:59;;;;;;;3.12;1.77;;;;;;;2.40;68.13;99773.16;1813997;79;21435;-41
2021/12/18 02:48:25;;;;;;;2.35;1.15;;;;;;;2.44;68.52;99778.16;1790198;79;21030;-40
2021/12/18 02:50:52;;;;;;;2.40;1.20;;;;;;;2.47;68.95;99779.69;1789867;79;21032;-40
2021/12/18 02:53:19;;;;;;;1.90;1.20;;;;;;;2.49;69.17;99782.08;1806306;79;21816;-41
2021/12/18 02:55:46;;;;;;;1.45;1.20;;;;;;;2.51;69.35;99786.06;1795429;79;21475;-40
2021/12/18 02:58:13;;;;;;;3.45;1.12;;;;;;;2.53;69.29;99781.73;1789910;79;21031;-41
2021/12/18 03:00:40;;;;;;;1.52;1.10;;;;;;;2.51;69.34;99782.59;1800236;79;21009;-40
2021/12/18 03:03:09;;;;;;;1.80;1.10;;;;;;;2.49;69.38;99783.42;1794533;79;21039;-40
2021/12/18 03:05:43;;;;;;;2.27;1.30;;;;;;;2.53;69.23;99792.44;1784925;79;21756;-40
2021/12/18 03:08:12;;;;;;;1.35;1.10;;;;;;;2.51;69.32;99787.94;1793735;79;20976;-40
2021/12/18 03:24:32;;;;;;;2.08;1.12;;;;;;;2.31;69.33;99797.66;1793917;79;20969;-40
2021/12/18 03:26:51;;;;;;;2.17;1.10;;;;;;;2.29;69.25;99793.94;1801625;79;21051;-40
2021/12/18 03:29:18;;;;;;;1.02;0.90;;;;;;;2.25;69.33;99799.62;1788865;79;21090;-40
2021/12/18 03:31:45;;;;;;;3.20;1.10;;;;;;;2.26;69.29;99800.42;1810053;79;21138;-40
2021/12/18 03:34:14;;;;;;;1.37;0.90;;;;;;;2.24;69.05;99801.25;1793806;79;21003;-40
2021/12/18 03:36:41;;;;;;;1.17;1.00;;;;;;;2.19;68.56;99802.92;1783182;79;21033;-40
2021/12/18 03:39:08;;;;;;;1.22;0.90;;;;;;;2.16;68.48;99803.52;1785025;80;21008;-40
2021/12/18 03:41:35;;;;;;;1.00;0.90;;;;;;;2.11;68.05;99807.62;1796831;79;21609;-40
2021/12/18 03:44:01;;;;;;;2.75;1.20;;;;;;;2.10;67.94;99809.23;1804193;79;21200;-40
2021/12/18 03:46:29;;;;;;;1.00;0.90;;;;;;;2.11;67.81;99814.84;1789023;79;20933;-41
2021/12/18 03:48:55;;;;;;;4.03;0.80;;;;;;;2.09;67.68;99815.66;1811993;79;20933;-40
2021/12/18 03:51:22;;;;;;;1.40;1.10;;;;;;;2.07;67.84;99813.30;1813895;79;21460;-40
2021/12/18 03:53:49;;;;;;;1.45;1.25;;;;;;;2.05;67.82;99813.33;1804132;79;21534;-40
2021/12/18 03:56:17;;;;;;;1.45;0.93;;;;;;;2.01;67.87;99809.11;1805323;79;21081;-40
2021/12/18 03:58:44;;;;;;;1.37;1.00;;;;;;;2.03;67.57;99804.25;1813957;79;20989;-40
2021/12/18 04:01:11;;;;;;;1.77;1.20;;;;;;;2.01;67.53;99817.14;1797591;79;21016;-40
2021/12/18 04:03:38;;;;;;;2.80;1.60;;;;;;;1.96;67.43;99813.20;1783129;79;21057;-40
2021/12/18 04:06:04;;;;;;;1.65;1.00;;;;;;;1.95;67.34;99815.62;1791475;79;21106;-40
2021/12/18 04:08:31;;;;;;;1.12;1.02;;;;;;;1.95;67.39;99820.17;1809986;79;21970;-40
2021/12/18 04:10:58;;;;;;;1.30;0.98;;;;;;;1.64;67.39;99767.19;1782212;79;21004;-40
2021/12/18 04:13:25;;;;;;;1.40;0.98;;;;;;;1.96;67.22;99819.89;1782326;80;21017;-41
2021/12/18 04:15:51;;;;;;;0.80;0.80;;;;;;;1.94;67.18;99819.91;1784083;79;20949;-41
2021/12/18 04:18:18;;;;;;;1.22;1.05;;;;;;;1.96;67.11;99821.77;1799919;79;21519;-40
2021/12/18 04:20:44;;;;;;;1.92;0.90;;;;;;;1.97;66.77;99825.49;1795635;79;21086;-41
2021/12/18 04:23:11;;;;;;;1.50;1.20;;;;;;;1.94;66.49;99831.41;1807497;79;21507;-40
2021/12/18 04:25:37;;;;;;;1.92;0.75;;;;;;;1.90;66.39;99830.40;1790018;79;21037;-40
2021/12/18 04:28:05;;;;;;;1.20;1.00;;;;;;;1.89;65.65;99826.13;1805261;79;21017;-41
2021/12/18 04:30:31;;;;;;;1.42;1.30;;;;;;;1.82;65.55;99831.06;1806615;79;21005;-40
2021/12/18 04:32:59;;;;;;;1.37;1.00;;;;;;;1.78;65.89;99835.41;1787148;79;21085;-40
2021/12/18 04:35:27;;;;;;;0.75;0.70;;;;;;;1.81;66.09;99830.81;1798785;79;21024;-40
2021/12/18 04:37:54;;;;;;;2.60;0.90;;;;;;;1.84;66.37;99832.13;1782287;80;21534;-41
2021/12/18 04:40:25;;;;;;;1.42;1.00;;;;;;;1.90;66.75;99835.75;1782456;80;20989;-41
2021/12/18 04:42:49;;;;;;;2.20;1.17;;;;;;;1.92;67.21;99840.27;1793912;79;21013;-40
2021/12/18 04:45:17;;;;;;;1.35;1.10;;;;;;;1.92;67.77;99842.95;1813584;79;21538;-40
2021/12/18 04:47:44;;;;;;;1.75;1.00;;;;;;;2.00;68.01;99849.50;1813053;79;21000;-41
2021/12/18 04:50:11;;;;;;;2.87;1.30;;;;;;;2.04;68.12;99849.17;1814253;79;21515;-41
2021/12/18 04:52:37;;;;;;;1.70;1.25;;;;;;;2.04;68.30;99855.31;1804898;79;21052;-40
2021/12/18 04:55:06;;;;;;;5.95;2.67;;;;;;;2.00;68.25;99855.65;1796884;79;20997;-41
2021/12/18 04:57:32;;;;;;;5.90;3.02;;;;;;;1.96;68.22;99855.98;1795347;79;21871;-40
2021/12/18 04:59:59;;;;;;;2.75;1.60;;;;;;;1.98;68.11;99863.72;1792445;79;20943;-41
2021/12/18 05:02:36;;;;;;;2.62;1.22;;;;;;;2.03;67.98;99860.41;1814266;79;21520;-41
2021/12/18 05:04:54;;;;;;;2.95;2.00;;;;;;;2.08;67.69;99858.99;1805080;79;21028;-41
2021/12/18 05:07:21;;;;;;;3.62;1.57;;;;;;;2.07;67.55;99861.44;1801881;78;21018;-40
2021/12/18 05:09:48;;;;;;;4.08;1.85;;;;;;;2.06;67.50;99861.72;1783632;79;21145;-41
2021/12/18 05:12:16;;;;;;;2.60;1.70;;;;;;;2.03;67.59;99859.06;1790909;78;21538;-41
2021/12/18 05:14:43;;;;;;;4.05;2.40;;;;;;;2.01;67.30;99855.91;1786177;78;20969;-41
2021/12/18 05:17:09;;;;;;;3.70;2.15;;;;;;;1.98;67.26;99865.06;1784637;79;21000;-42
2021/12/18 05:19:38;;;;;;;4.47;2.50;;;;;;;1.97;67.08;99858.91;1804874;79;21040;-42
2021/12/18 05:22:05;;;;;;;5.47;2.25;;;;;;;1.99;67.30;99870.64;1785197;79;22009;-41
2021/12/18 05:24:31;;;;;;;3.12;1.70;;;;;;;1.99;67.67;99873.31;1790791;77;21013;-41
2021/12/18 05:26:58;;;;;;;2.67;1.60;;;;;;;2.00;67.80;99881.05;1816499;79;20921;-41
2021/12/18 05:29:25;;;;;;;2.83;2.12;;;;;;;2.04;68.01;99888.75;1806010;79;21529;-41
2021/12/18 05:31:52;;;;;;;2.02;1.47;;;;;;;2.04;68.24;99894.09;1784369;80;21024;-41
2021/12/18 05:34:24;;;;;;;1.80;1.40;;;;;;;2.04;68.67;99906.12;1793643;79;21429;-40
2021/12/18 05:39:27;;;;;;;2.00;1.30;;;;;;;1.98;69.32;99911.85;1808619;79;20948;-40
2021/12/18 05:41:54;;;;;;;2.00;1.67;;;;;;;1.98;69.36;99913.98;1814988;78;21020;-40
2021/12/18 05:44:24;;;;;;;2.10;1.42;;;;;;;2.02;69.40;99916.34;1816131;79;21020;-40
2021/12/18 05:46:51;;;;;;;2.90;1.40;;;;;;;2.10;69.30;99915.67;1816199;79;21514;-40
2021/12/18 05:49:19;;;;;;;2.62;1.75;;;;;;;2.15;69.27;99920.95;1816687;79;21010;-40
2021/12/18 05:51:45;;;;;;;2.47;1.70;;;;;;;2.17;69.11;99915.32;1814489;79;20996;-40
2021/12/18 05:54:12;;;;;;;2.95;2.10;;;;;;;2.19;68.82;99919.28;1816589;79;20972;-40
2021/12/18 05:56:40;;;;;;;2.40;1.80;;;;;;;2.17;68.56;99928.69;1816772;79;21005;-40
2021/12/18 05:59:07;;;;;;;6.72;2.35;;;;;;;1.99;68.59;99906.20;1816625;79;21167;-40
2021/12/18 06:01:33;;;;;;;4.53;2.37;;;;;;;2.17;68.60;99933.50;1790744;79;21501;-40
2021/12/18 06:04:00;;;;;;;2.87;1.90;;;;;;;2.22;68.59;99927.82;1789622;80;21071;-41
2021/12/18 06:06:29;;;;;;;2.20;1.50;;;;;;;2.22;68.66;99919.80;1797864;79;21029;-41
2021/12/18 06:08:57;;;;;;;1.42;1.02;;;;;;;2.23;68.67;99920.83;1785313;79;21080;-41
2021/12/18 06:11:27;;;;;;;1.80;1.30;;;;;;;2.27;68.70;99925.87;1784349;80;21797;-40
2021/12/18 06:13:52;;;;;;;2.62;1.35;;;;;;;2.31;68.70;99930.09;1783996;80;21082;-40
2021/12/18 06:16:20;;;;;;;2.33;1.60;;;;;;;2.38;68.45;99931.84;1784469;79;21029;-40
2021/12/18 06:18:50;;;;;;;1.70;1.40;;;;;;;2.43;68.15;99934.44;1787193;79;21036;-40
2021/12/18 06:21:16;;;;;;;2.75;1.40;;;;;;;2.48;67.96;99927.67;1803343;79;21028;-40
2021/12/18 06:23:46;;;;;;;6.60;1.87;;;;;;;2.54;67.88;99933.20;1809075;79;21167;-41
2021/12/18 06:26:14;;;;;;;2.30;1.65;;;;;;;2.56;67.50;99932.37;1815395;79;21028;-41
2021/12/18 06:28:41;;;;;;;1.45;1.10;;;;;;;2.56;67.14;99939.07;1813522;79;21024;-41
2021/12/18 06:31:07;;;;;;;5.45;1.70;;;;;;;2.50;66.72;99930.86;1803340;79;21017;-40
2021/12/18 06:33:34;;;;;;;3.47;2.15;;;;;;;2.46;66.71;99940.03;1816315;79;21594;-41
2021/12/18 06:36:01;;;;;;;3.77;2.10;;;;;;;2.44;66.31;99944.06;1792899;79;21125;-40
2021/12/18 06:38:28;;;;;;;3.35;1.85;;;;;;;2.37;66.30;99942.31;1787326;79;21498;-41
2021/12/18 06:40:55;;;;;;;2.45;1.62;;;;;;;2.34;66.44;99941.54;1816447;79;21077;-40
2021/12/18 06:43:22;;;;;;;2.50;1.72;;;;;;;2.30;66.30;99948.56;1816205;79;21008;-41
2021/12/18 06:45:48;;;;;;;3.15;1.87;;;;;;;2.24;66.78;99955.86;1816514;79;21523;-41
2021/12/18 06:48:15;;;;;;;1.98;1.77;;;;;;;2.26;67.03;99949.69;1816377;79;21105;-41
2021/12/18 06:50:42;;;;;;;2.27;1.60;;;;;;;2.24;67.17;99947.03;1791538;79;21021;-40
2021/12/18 06:53:08;;;;;;;2.17;1.47;;;;;;;2.24;67.42;99950.51;1784396;79;21431;-40
2021/12/18 06:55:35;;;;;;;1.92;1.30;;;;;;;2.27;67.66;99952.63;1791011;79;21008;-40
2021/12/18 06:58:02;;;;;;;1.87;1.40;;;;;;;2.28;67.74;99952.85;1811775;79;21535;-41
2021/12/18 07:00:29;;;;;;;3.02;1.37;;;;;;;2.26;67.87;99956.92;1818361;77;21206;-41
2021/12/18 07:02:56;;;;;;;1.35;1.25;;;;;;;2.27;68.03;99963.33;1849609;77;20987;-40
2021/12/18 07:05:22;;;;;;;3.08;1.40;;;;;;;2.27;67.90;99964.66;1849489;77;21529;-41
2021/12/18 07:07:53;;;;;;;2.85;1.50;;;;;;;2.23;67.50;99960.19;1849705;77;20910;-40
2021/12/18 07:10:18;;;;;;;2.27;1.52;;;;;;;2.19;67.46;99958.06;1848310;77;21013;-40
2021/12/18 07:12:44;;;;;;;2.98;1.50;;;;;;;2.16;67.08;99961.87;1841698;77;21110;-40
2021/12/18 07:15:12;;;;;;;1.30;1.10;;;;;;;2.11;66.20;99960.60;1785796;79;21007;-41
2021/12/18 07:17:38;;;;;;;1.82;1.30;;;;;;;2.05;66.22;99966.56;1812794;79;21046;-40
2021/12/18 07:20:07;;;;;;;3.02;1.50;;;;;;;2.06;66.02;99970.83;1788209;79;21079;-40
2021/12/18 07:22:33;;;;;;;2.67;1.60;;;;;;;2.04;65.83;99962.28;1784316;80;21068;-40
2021/12/18 07:26:32;;;;;;;2.42;1.50;;;;;;;2.09;65.97;99971.58;1817047;78;22489;-40
2021/12/18 07:29:00;;;;;;;1.98;1.30;;;;;;;1.98;66.14;99974.16;1719046;83;21056;-40
2021/12/18 07:31:27;;;;;;;1.90;1.37;;;;;;;2.00;66.13;99971.17;1688708;85;21183;-40
2021/12/18 07:33:54;;;;;;;3.22;1.47;;;;;;;1.96;66.13;99980.86;1718997;83;20912;-40
2021/12/18 07:36:20;;;;;;;1.70;1.20;;;;;;;1.95;66.57;99982.73;1688895;85;20905;-39
2021/12/18 07:38:47;;;;;;;3.65;1.50;;;;;;;1.99;66.81;99994.98;1688791;85;20913;-39
2021/12/18 07:41:14;;;;;;;2.42;1.30;;;;;;;2.00;67.06;99988.02;1700390;83;21506;-40
2021/12/18 07:43:40;;;;;;;2.00;1.45;;;;;;;2.04;67.06;99990.36;1703417;84;21962;-39
2021/12/18 07:46:09;;;;;;;2.17;1.42;;;;;;;2.03;67.18;99986.09;1718970;83;21004;-41
2021/12/18 07:48:36;;;;;;;1.50;1.20;;;;;;;2.10;67.35;99993.23;1710957;81;20985;-39
2021/12/18 07:51:03;;;;;;;1.35;1.25;;;;;;;2.15;67.30;99993.16;1708672;83;21594;-39
2021/12/18 07:53:30;;;;;;;1.75;1.30;;;;;;;2.17;67.50;99991.02;1708972;82;21065;-39
2021/12/18 07:55:56;;;;;;;1.57;1.20;;;;;;;2.12;67.58;99984.39;1708618;83;21064;-39
2021/12/18 07:58:24;;;;;;;2.40;1.20;;;;;;;2.20;67.73;99994.98;1708634;84;20933;-39
2021/12/18 08:00:51;;;;;;;2.02;1.20;;;;;;;2.24;67.68;100000.53;1728407;82;21544;-40
2021/12/18 08:03:18;;;;;;;1.80;1.30;;;;;;;2.29;67.78;99997.80;1738149;82;21077;-39
2021/12/18 08:05:44;;;;;;;1.60;1.30;;;;;;;2.37;67.67;99994.48;1736051;81;21590;-39
2021/12/18 08:08:11;;;;;;;2.00;1.40;;;;;;;2.42;67.46;100000.53;1738175;82;21781;-39
2021/12/18 08:10:37;;;;;;;1.85;1.40;;;;;;;2.43;67.16;99998.66;1738210;82;20962;-39
2021/12/18 08:13:04;;;;;;;2.33;1.50;;;;;;;2.42;67.07;99998.43;1738107;82;21039;-40
2021/12/18 08:15:31;;;;;;;3.80;1.67;;;;;;;2.43;67.17;100000.00;1738162;82;21685;-39
2021/12/18 08:17:58;;;;;;;2.80;1.90;;;;;;;2.42;67.22;100005.12;1736707;82;21035;-40
2021/12/18 08:20:26;;;;;;;3.10;1.60;;;;;;;2.43;67.01;100002.67;1724902;82;21096;-39
2021/12/18 08:22:52;;;;;;;3.42;1.35;;;;;;;2.41;67.09;100002.19;1738093;82;21060;-39
2021/12/18 08:25:21;;;;;;;1.65;1.05;;;;;;;2.37;66.76;99999.27;1742039;82;20930;-39
2021/12/18 08:27:47;;;;;;;1.42;1.10;;;;;;;2.32;66.75;100002.05;1748673;82;21573;-39
2021/12/18 08:30:14;;;;;;;1.40;1.05;;;;;;;2.28;66.86;99997.00;1736987;82;21084;-39
2021/12/18 08:32:43;;;;;;;2.12;1.72;;;;;;;2.28;66.94;99989.51;1731000;82;21171;-39
2021/12/18 08:35:10;;;;;;;2.58;1.87;;;;;;;2.25;67.08;99990.09;1736690;82;21502;-39
2021/12/18 08:37:37;;;;;;;1.72;1.20;;;;;;;2.31;67.02;99985.73;1737384;82;21011;-39
2021/12/18 08:40:05;;;;;;;1.45;0.90;;;;;;;2.33;66.54;99985.42;1738341;80;21015;-39
2021/12/18 08:42:33;;;;;;;1.30;0.98;;;;;;;2.30;66.21;99980.66;1734234;82;21088;-40
2021/12/18 08:45:01;;;;;;;1.20;1.00;;;;;;;2.29;66.10;99979.06;1740455;82;21377;-39
2021/12/18 08:47:27;;;;;;;1.07;0.98;;;;;;;2.30;65.87;99968.63;1747248;81;21067;-40
2021/12/18 08:49:54;;;;;;;1.30;1.17;;;;;;;2.30;64.49;99969.42;1735879;82;21019;-39
2021/12/18 08:52:21;;;;;;;2.75;1.22;;;;;;;2.22;64.85;99962.59;1726221;82;21075;-40
2021/12/18 08:54:48;;;;;;;1.57;1.07;;;;;;;2.17;64.91;99966.14;1738360;82;21044;-40
2021/12/18 08:57:15;;;;;;;1.60;1.02;;;;;;;2.17;64.66;99967.48;1745430;82;21530;-39
2021/12/18 08:59:42;;;;;;;1.77;1.20;;;;;;;2.17;64.20;99969.61;1746553;82;21016;-39
2021/12/18 09:02:09;;;;;;;2.00;1.15;;;;;;;2.16;64.38;99973.91;1777675;79;20968;-40
2021/12/18 09:04:37;;;;;;;1.80;1.20;;;;;;;2.18;64.07;99976.53;1777002;79;21768;-40
2021/12/18 09:07:04;;;;;;;1.32;1.12;;;;;;;2.15;63.78;99967.76;1780553;79;21087;-39
2021/12/18 09:09:31;;;;;;;3.52;1.75;;;;;;;2.11;63.92;99972.64;1770844;80;21069;-40
2021/12/18 09:11:58;;;;;;;2.00;1.37;;;;;;;2.11;63.95;99970.76;1764225;79;21008;-39
2021/12/18 09:14:24;;;;;;;1.80;1.50;;;;;;;2.13;64.12;99971.25;1772871;79;21001;-39
2021/12/18 09:16:52;;;;;;;2.20;1.50;;;;;;;2.17;64.07;99966.94;1772104;80;21028;-40
2021/12/18 09:19:19;;;;;;;1.50;1.20;;;;;;;2.17;64.38;99972.29;1770563;80;21043;-40
2021/12/18 09:21:46;;;;;;;1.35;1.20;;;;;;;2.15;64.39;99971.77;1759984;80;21143;-39
2021/12/18 09:24:13;;;;;;;1.50;0.98;;;;;;;2.18;64.57;99969.84;1761653;80;21518;-40
2021/12/18 09:26:39;;;;;;;1.75;0.88;;;;;;;2.23;64.62;99970.31;1777633;79;20953;-40
2021/12/18 09:29:06;;;;;;;1.10;1.00;;;;;;;2.24;64.52;99959.08;1760717;80;21031;-39
2021/12/18 09:31:33;;;;;;;1.02;0.93;;;;;;;2.19;64.55;99964.75;1769897;79;21033;-40
2021/12/18 09:34:01;;;;;;;1.17;1.00;;;;;;;2.18;64.80;99971.72;1784159;79;21129;-40
2021/12/18 09:36:28;;;;;;;0.98;0.93;;;;;;;2.11;64.97;99966.75;1786264;80;21000;-40
2021/12/18 09:38:54;;;;;;;1.30;1.10;;;;;;;2.05;65.37;99969.23;1769537;79;21036;-40
2021/12/18 09:41:21;;;;;;;1.50;1.07;;;;;;;2.01;65.81;99968.22;1755782;80;21012;-39
2021/12/18 09:43:48;;;;;;;1.10;1.00;;;;;;;2.04;65.84;99970.31;1759854;80;21012;-40
2021/12/18 09:46:15;;;;;;;1.10;1.00;;;;;;;2.08;66.02;99969.21;1768199;80;21933;-40
2021/12/18 09:48:43;;;;;;;1.62;1.12;;;;;;;2.09;65.98;99962.75;1755165;81;20969;-40
2021/12/18 09:51:21;;;;;;;1.50;1.10;;;;;;;2.11;66.23;99957.39;1779539;79;21040;-40
2021/12/18 09:53:41;;;;;;;1.35;1.22;;;;;;;2.14;65.86;99954.13;1781758;78;21031;-40
2021/12/18 09:56:08;;;;;;;1.60;1.05;;;;;;;2.10;66.00;99957.13;1771245;79;21066;-40
2021/12/18 09:58:34;;;;;;;1.60;1.30;;;;;;;2.12;66.35;99956.31;1769442;80;21077;-40
2021/12/18 10:01:02;;;;;;;2.05;1.50;;;;;;;2.17;66.49;99947.41;1775582;80;20949;-39
2021/12/18 10:03:46;;;;;;;1.65;1.30;;;;;;;2.21;66.41;99951.64;1786111;80;20921;-39
2021/12/18 10:06:41;;;;;;;3.00;1.60;;;;;;;2.25;65.81;99944.08;1765396;80;21004;-39
2021/12/18 10:09:22;;;;;;;1.60;1.30;;;;;;;2.26;65.47;99940.33;1776303;79;20964;-40
2021/12/18 10:11:55;;;;;;;1.82;1.30;;;;;;;2.23;65.51;99934.20;1767065;80;21692;-39
2021/12/18 10:14:37;;;;;;;2.77;1.40;;;;;;;2.25;65.53;99929.37;1754963;80;21036;-40
2021/12/18 10:17:06;;;;;;;2.47;1.32;;;;;;;2.27;65.85;99927.75;1755270;81;21072;-40
2021/12/18 10:19:36;;;;;;;1.87;1.20;;;;;;;2.28;65.42;99911.39;1778783;80;20988;-40
2021/12/18 10:22:05;;;;;;;1.70;1.20;;;;;;;2.32;65.16;99910.28;1760153;80;20997;-39
2021/12/18 10:24:34;;;;;;;1.27;1.07;;;;;;;2.32;65.01;99912.42;1758057;79;21784;-39
2021/12/18 10:27:03;;;;;;;2.50;1.70;;;;;;;2.36;64.59;99908.61;1774011;80;21561;-39
2021/12/18 10:29:36;;;;;;;2.47;1.47;;;;;;;2.35;64.57;99906.48;1764409;80;26565;-40
2021/12/18 10:32:14;;;;;;;2.87;1.70;;;;;;;2.34;64.69;99900.07;1759200;79;21011;-40
2021/12/18 10:34:45;;;;;;;2.52;1.62;;;;;;;2.32;64.62;99896.37;1768331;80;21008;-39
2021/12/18 10:37:31;;;;;;;;;;;;;;;2.31;64.41;99899.33;1765800;80;21952;-39
2021/12/18 10:40:10;;;;;;;12.93;6.65;;;;;;;2.32;64.69;99903.05;1788623;80;20957;-40
2021/12/18 10:42:40;;;;;;;12.28;6.45;;;;;;;2.23;65.54;99904.77;1770317;78;21025;-39
2021/12/18 10:45:23;;;;;;;7.17;4.17;;;;;;;2.26;65.76;99904.21;1760610;80;21079;-39
2021/12/18 10:48:03;;;;;;;3.65;2.98;;;;;;;2.28;66.09;99907.91;1780659;79;21801;-40
2021/12/18 10:50:49;;;;;;;2.35;1.87;;;;;;;1.85;67.03;99845.17;1767689;80;21115;-40
2021/12/18 10:53:20;;;;;;;3.67;2.35;;;;;;;2.10;67.62;99906.31;1779705;80;21016;-40
2021/12/18 10:55:54;;;;;;;8.63;4.10;;;;;;;2.01;68.14;99899.23;1757599;81;21012;-40
2021/12/18 10:58:34;;;;;;;12.60;5.60;;;;;;;2.00;68.61;99902.98;1761022;80;20945;-40
2021/12/18 11:01:12;;;;;;;;;;;;;;;2.00;68.84;99898.44;1783016;78;21091;-40
2021/12/18 11:03:46;;;;;;;3.22;2.27;;;;;;;2.00;69.12;99893.09;1787145;80;21178;-40
2021/12/18 11:06:20;;;;;;;1.95;1.50;;;;;;;1.99;69.42;99894.16;1788051;80;20990;-40
2021/12/18 11:09:12;;;;;;;3.30;1.45;;;;;;;2.14;69.17;99892.61;1788836;79;20955;-40
2021/12/18 11:14:40;;;;;;;2.08;1.70;;;;;;;2.18;68.93;99894.95;1757492;80;21008;-40
2021/12/18 11:17:11;;;;;;;2.02;1.82;;;;;;;2.20;69.06;99890.66;1760637;80;21139;-40
2021/12/18 11:19:39;;;;;;;2.12;1.82;;;;;;;2.19;68.89;99884.51;1785840;80;21056;-40
2021/12/18 11:22:16;;;;;;;2.70;2.12;;;;;;;2.22;69.09;99878.34;1788756;79;20901;-40
2021/12/18 11:25:02;;;;;;;2.55;2.35;;;;;;;2.26;68.59;99880.67;1788734;80;20957;-39
2021/12/18 11:27:29;;;;;;;3.25;2.00;;;;;;;2.19;68.65;99876.48;1786827;79;21488;-40
2021/12/18 11:30:12;;;;;;;3.20;2.10;;;;;;;2.17;68.56;99878.67;1764594;80;21160;-39
2021/12/18 11:32:43;;;;;;;2.37;2.15;;;;;;;2.21;68.37;99878.87;1757464;81;21012;-39
2021/12/18 11:35:13;;;;;;;2.15;1.85;;;;;;;2.18;68.00;99883.45;1757688;81;21004;-40
2021/12/18 11:37:43;;;;;;;1.35;1.25;;;;;;;2.13;67.63;99877.64;1758037;81;21033;-40
2021/12/18 11:40:15;;;;;;;2.12;1.62;;;;;;;2.07;67.59;99877.48;1758843;80;21031;-39
2021/12/18 11:42:42;;;;;;;3.00;1.98;;;;;;;2.02;67.67;99876.22;1758040;81;22966;-40
2021/12/18 11:45:10;;;;;;;1.60;1.50;;;;;;;2.03;66.98;99872.44;1778647;79;21005;-40
2021/12/18 11:47:42;;;;;;;4.25;1.70;;;;;;;1.97;67.22;99869.61;1767442;80;20980;-40
2021/12/18 11:50:31;;;;;;;2.40;2.00;;;;;;;1.92;67.53;99864.34;1767428;78;21530;-40
2021/12/18 11:53:11;;;;;;;2.50;1.72;;;;;;;1.93;67.52;99869.14;1795850;79;21017;-40
2021/12/18 11:55:52;;;;;;;1.40;1.20;;;;;;;1.94;67.64;99861.35;1784020;78;21122;-41
2021/12/18 11:58:28;;;;;;;1.65;1.37;;;;;;;1.88;66.63;99859.32;1757485;81;20961;-40
2021/12/18 12:01:02;;;;;;;1.55;1.30;;;;;;;1.83;66.65;99867.41;1765354;78;21028;-41
2021/12/18 12:03:45;;;;;;;2.27;1.30;;;;;;;1.83;66.33;99862.06;1757868;81;21021;-40
2021/12/18 12:06:26;;;;;;;1.50;1.40;;;;;;;1.84;66.20;99856.95;1757562;81;21040;-40
2021/12/18 12:09:20;;;;;;;1.20;1.10;;;;;;;1.83;65.87;99855.38;1786632;80;21923;-40
2021/12/18 12:11:59;;;;;;;1.50;1.40;;;;;;;1.79;65.73;99848.23;1781485;79;20993;-41
2021/12/18 12:14:29;;;;;;;1.52;1.40;;;;;;;1.79;65.81;99851.70;1782982;79;21346;-41
2021/12/18 12:17:03;;;;;;;1.42;1.32;;;;;;;1.82;65.54;99858.34;1757972;81;20969;-41
2021/12/18 12:19:44;;;;;;;1.60;1.50;;;;;;;1.83;64.88;99850.58;1766845;80;21060;-41
2021/12/18 12:22:35;;;;;;;2.00;1.80;;;;;;;1.80;64.46;99847.92;1782876;80;22104;-41
2021/12/18 12:25:05;;;;;;;5.83;2.72;;;;;;;1.77;64.40;99845.05;1763320;80;21518;-41
2021/12/18 12:27:45;;;;;;;2.75;1.70;;;;;;;1.78;64.25;99851.98;1764991;80;21031;-41
2021/12/18 12:30:43;;;;;;;1.80;1.57;;;;;;;1.78;64.34;99843.42;1757835;81;20965;-41
2021/12/18 12:33:07;;;;;;;1.52;1.27;;;;;;;1.84;64.29;99850.27;1752113;80;21044;-41
2021/12/18 12:36:03;;;;;;;1.82;1.20;;;;;;;1.91;64.11;99851.25;1746186;82;20918;-41
2021/12/18 12:38:37;;;;;;;1.47;1.10;;;;;;;1.98;63.84;99850.36;1728541;81;21550;-41